createdAt,value
2019-05-22T00:00:51.693Z,4.70
2019-05-22T00:03:24.050Z,3.73
2019-05-22T00:05:56.387Z,4.27
2019-05-22T00:08:27.634Z,4.07
2019-05-22T00:11:01.577Z,3.53
2019-05-22T00:13:31.434Z,5.53
2019-05-22T00:16:04.001Z,6.17
2019-05-22T00:18:35.681Z,3.67
2019-05-22T00:21:06.949Z,5.13
2019-05-22T00:23:38.730Z,6.20
2019-05-22T00:26:11.211Z,3.57
2019-05-22T00:28:42.893Z,4.63
2019-05-22T00:31:14.589Z,5.07
2019-05-22T00:33:45.560Z,7.30
2019-05-22T00:36:17.471Z,4.07
2019-05-22T00:38:47.817Z,4.03
2019-05-22T00:41:20.829Z,3.42
2019-05-22T00:43:51.600Z,4.50
2019-05-22T00:46:21.544Z,3.93
2019-05-22T00:48:54.398Z,4.03
2019-05-22T00:51:45.563Z,4.97
2019-05-22T00:54:26.340Z,5.70
2019-05-22T00:57:14.083Z,4.60
2019-05-22T00:59:46.817Z,5.30
2019-05-22T01:02:21.343Z,3.10
2019-05-22T01:04:52.134Z,5.13
2019-05-22T01:07:32.847Z,2.97
2019-05-22T01:10:04.954Z,3.73
2019-05-22T01:12:42.594Z,4.23
2019-05-22T01:15:16.090Z,6.27
2019-05-22T01:17:48.374Z,6.47
2019-05-22T01:20:24.517Z,3.87
2019-05-22T01:22:58.042Z,9.20
2019-05-22T01:25:29.037Z,3.45
2019-05-22T01:28:00.076Z,5.27
2019-05-22T01:30:41.941Z,5.27
2019-05-22T01:33:16.590Z,5.50
2019-05-22T01:36:05.332Z,3.73
2019-05-22T01:38:35.743Z,5.53
2019-05-22T01:41:08.456Z,6.20
2019-05-22T01:43:39.848Z,5.90
2019-05-22T01:46:12.434Z,6.40
2019-05-22T01:48:45.302Z,4.27
2019-05-22T01:51:16.815Z,4.70
2019-05-22T01:53:47.560Z,4.77
2019-05-22T01:56:19.829Z,4.40
2019-05-22T01:58:50.660Z,4.20
2019-05-22T02:01:24.364Z,5.37
2019-05-22T02:03:58.319Z,5.40
2019-05-22T02:06:29.330Z,9.27
2019-05-22T02:09:35.582Z,4.80
2019-05-22T02:12:18.003Z,6.53
2019-05-22T02:14:50.986Z,6.70
2019-05-22T02:17:22.310Z,5.00
2019-05-22T02:19:52.014Z,6.70
2019-05-22T02:22:21.993Z,6.47
2019-05-22T02:24:53.744Z,4.67
2019-05-22T02:27:23.962Z,6.43
2019-05-22T02:29:56.196Z,7.80
2019-05-22T02:32:28.747Z,4.63
2019-05-22T02:34:58.877Z,10.17
2019-05-22T02:37:32.531Z,4.87
2019-05-22T02:40:02.211Z,6.67
2019-05-22T02:42:33.070Z,4.73
2019-05-22T02:45:03.557Z,4.97
2019-05-22T02:47:34.180Z,5.13
2019-05-22T02:50:05.367Z,3.97
2019-05-22T02:52:35.507Z,6.42
2019-05-22T02:55:06.991Z,3.63
2019-05-22T02:57:37.863Z,7.27
2019-05-22T03:00:08.947Z,8.53
2019-05-22T03:02:42.880Z,6.08
2019-05-22T03:05:15.281Z,6.07
2019-05-22T03:07:46.594Z,5.27
2019-05-22T03:10:19.271Z,3.63
2019-05-22T03:12:51.588Z,8.60
2019-05-22T03:15:24.350Z,3.80
2019-05-22T03:18:04.919Z,5.70
2019-05-22T03:20:37.712Z,7.10
2019-05-22T03:23:38.659Z,5.23
2019-05-22T03:26:10.542Z,4.13
2019-05-22T03:28:41.963Z,3.37
2019-05-22T03:31:13.710Z,3.63
2019-05-22T03:33:44.736Z,4.43
2019-05-22T03:36:21.156Z,3.87
2019-05-22T03:38:52.129Z,4.20
2019-05-22T03:41:23.043Z,3.30
2019-05-22T03:43:55.693Z,7.67
2019-05-22T03:46:42.765Z,4.57
2019-05-22T03:49:28.907Z,5.63
2019-05-22T03:51:49.400Z,4.15
2019-05-22T03:54:20.461Z,6.60
2019-05-22T03:56:50.819Z,5.07
2019-05-22T03:59:22.484Z,4.13
2019-05-22T04:01:52.867Z,4.43
2019-05-22T04:04:42.494Z,2.90
2019-05-22T04:07:18.530Z,3.70
2019-05-22T04:09:51.506Z,4.17
2019-05-22T04:12:23.673Z,3.97
2019-05-22T04:14:54.196Z,4.20
2019-05-22T04:17:25.384Z,2.77
2019-05-22T04:19:57.059Z,2.43
2019-05-22T04:22:27.620Z,3.77
2019-05-22T04:24:57.374Z,2.63
2019-05-22T04:27:27.023Z,3.30
2019-05-22T04:29:58.242Z,2.20
2019-05-22T04:32:33.486Z,5.78
2019-05-22T04:35:04.916Z,5.73
2019-05-22T04:37:36.243Z,2.37
2019-05-22T04:40:24.338Z,4.70
2019-05-22T04:42:55.927Z,2.63
2019-05-22T04:45:26.625Z,4.27
2019-05-22T04:48:00.631Z,3.10
2019-05-22T04:50:32.411Z,4.73
2019-05-22T04:53:03.651Z,5.33
2019-05-22T04:55:34.211Z,2.37
2019-05-22T04:58:08.403Z,3.40
2019-05-22T05:00:39.982Z,3.33
2019-05-22T05:03:11.860Z,2.57
2019-05-22T05:05:43.642Z,2.50
2019-05-22T05:08:15.246Z,3.87
2019-05-22T05:10:48.134Z,3.73
2019-05-22T05:13:18.808Z,8.73
2019-05-22T05:15:48.568Z,3.65
2019-05-22T05:18:20.797Z,5.87
2019-05-22T05:20:51.304Z,2.58
2019-05-22T05:23:21.839Z,2.87
2019-05-22T05:25:51.567Z,2.43
2019-05-22T05:28:23.285Z,3.77
2019-05-22T05:30:53.667Z,4.93
2019-05-22T05:33:23.703Z,5.10
2019-05-22T05:35:54.266Z,3.47
2019-05-22T05:38:35.978Z,2.40
2019-05-22T05:41:06.952Z,2.17
2019-05-22T05:43:36.670Z,4.50
2019-05-22T05:46:06.875Z,3.43
2019-05-22T05:48:37.017Z,7.63
2019-05-22T05:51:36.005Z,3.87
2019-05-22T05:54:12.135Z,2.90
2019-05-22T05:56:43.658Z,4.67
2019-05-22T05:59:16.244Z,3.70
2019-05-22T06:02:00.290Z,2.30
2019-05-22T06:04:35.499Z,3.97
2019-05-22T06:07:24.352Z,5.40
2019-05-22T06:10:31.570Z,3.80
2019-05-22T06:13:02.266Z,4.23
2019-05-22T06:15:47.164Z,8.97
2019-05-22T06:18:32.622Z,4.20
2019-05-22T06:21:04.606Z,4.80
2019-05-22T06:24:23.739Z,6.10
2019-05-22T06:27:03.362Z,2.67
2019-05-22T06:29:36.389Z,2.35
2019-05-22T06:32:34.424Z,3.50
2019-05-22T06:35:07.310Z,4.10
2019-05-22T06:37:39.915Z,3.83
2019-05-22T06:40:11.775Z,3.20
2019-05-22T06:42:45.347Z,2.97
2019-05-22T06:45:15.734Z,3.47
2019-05-22T06:47:46.179Z,2.10
2019-05-22T06:50:16.635Z,4.23
2019-05-22T06:52:47.091Z,2.47
2019-05-22T06:55:16.920Z,4.03
2019-05-22T06:57:47.194Z,4.70
2019-05-22T07:00:21.549Z,2.90
2019-05-22T07:02:52.423Z,2.43
2019-05-22T07:05:22.976Z,2.17
2019-05-22T07:07:53.689Z,3.07
2019-05-22T07:10:24.851Z,2.60
2019-05-22T07:12:54.671Z,1.50
2019-05-22T07:15:39.530Z,1.53
2019-05-22T07:18:12.727Z,2.43
2019-05-22T07:20:44.242Z,1.33
2019-05-22T07:23:16.771Z,2.43
2019-05-22T07:25:49.205Z,5.57
2019-05-22T07:28:20.308Z,2.13
2019-05-22T07:30:51.684Z,1.83
2019-05-22T07:33:22.268Z,1.90
2019-05-22T07:36:08.363Z,1.40
2019-05-22T07:38:25.309Z,3.00
2019-05-22T07:40:56.098Z,1.80
2019-05-22T07:43:25.918Z,1.13
2019-05-22T07:45:57.322Z,1.87
2019-05-22T07:48:30.009Z,1.43
2019-05-22T07:51:02.688Z,1.83
2019-05-22T07:53:34.485Z,2.50
2019-05-22T07:56:10.022Z,2.33
2019-05-22T07:58:39.739Z,2.10
2019-05-22T08:01:11.108Z,1.57
2019-05-22T08:03:45.388Z,2.30
2019-05-22T08:06:16.643Z,1.60
2019-05-22T08:08:49.250Z,1.67
2019-05-22T08:11:22.392Z,2.90
2019-05-22T08:13:52.485Z,1.70
2019-05-22T08:16:23.548Z,1.40
2019-05-22T08:18:54.050Z,3.80
2019-05-22T08:21:25.096Z,1.43
2019-05-22T08:23:58.080Z,2.20
2019-05-22T08:26:29.785Z,2.62
2019-05-22T08:29:00.769Z,1.90
2019-05-22T08:31:33.074Z,1.77
2019-05-22T08:34:02.795Z,1.57
2019-05-22T08:36:32.394Z,1.37
2019-05-22T08:39:03.805Z,1.33
2019-05-22T08:41:35.033Z,1.30
2019-05-22T08:44:16.570Z,2.60
2019-05-22T08:46:39.943Z,4.37
2019-05-22T08:49:10.175Z,3.03
2019-05-22T08:51:41.110Z,2.40
2019-05-22T08:54:13.107Z,1.53
2019-05-22T08:56:47.288Z,1.77
2019-05-22T08:59:19.746Z,3.77
2019-05-22T09:01:48.935Z,2.30
2019-05-22T09:04:19.294Z,2.40
2019-05-22T09:06:48.948Z,3.40
2019-05-22T09:09:20.056Z,4.13
2019-05-22T09:11:49.737Z,4.20
2019-05-22T09:14:20.923Z,5.03
2019-05-22T09:16:52.068Z,4.23
2019-05-22T09:19:21.917Z,3.43
2019-05-22T09:21:52.946Z,3.93
2019-05-22T09:24:26.042Z,8.07
2019-05-22T09:26:55.791Z,4.17
2019-05-22T09:29:26.300Z,4.27
2019-05-22T09:31:56.789Z,4.43
2019-05-22T09:34:27.390Z,4.43
2019-05-22T09:36:57.164Z,2.53
2019-05-22T09:39:27.427Z,2.27
2019-05-22T09:41:57.133Z,3.37
2019-05-22T09:44:26.811Z,5.53
2019-05-22T09:46:57.081Z,4.30
2019-05-22T09:49:27.548Z,3.70
2019-05-22T09:51:58.442Z,2.43
2019-05-22T09:54:28.360Z,2.83
2019-05-22T09:56:58.046Z,5.33
2019-05-22T09:59:27.671Z,5.93
2019-05-22T10:01:57.382Z,4.83
2019-05-22T10:04:27.026Z,4.53
2019-05-22T10:06:57.518Z,4.70
2019-05-22T10:09:27.605Z,2.90
2019-05-22T10:11:58.354Z,3.53
2019-05-22T10:14:28.553Z,4.72
2019-05-22T10:16:58.841Z,4.83
2019-05-22T10:19:28.571Z,5.92
2019-05-22T10:21:58.698Z,2.67
2019-05-22T10:24:28.406Z,3.43
2019-05-22T10:26:58.028Z,3.67
2019-05-22T10:29:31.805Z,4.03
2019-05-22T10:31:59.137Z,6.33
2019-05-22T10:34:29.515Z,5.57
2019-05-22T10:37:00.139Z,4.20
2019-05-22T10:39:30.791Z,4.60
2019-05-22T10:42:01.275Z,4.10
2019-05-22T10:44:31.776Z,4.67
2019-05-22T10:47:01.671Z,4.13
2019-05-22T10:49:32.047Z,11.80
2019-05-22T10:52:02.670Z,4.73
2019-05-22T10:54:32.375Z,5.00
2019-05-22T10:57:02.206Z,3.07
2019-05-22T10:59:32.777Z,5.87
2019-05-22T11:02:03.359Z,3.97
2019-05-22T11:04:33.946Z,5.53
2019-05-22T11:07:05.991Z,6.33
2019-05-22T11:09:37.175Z,8.63
2019-05-22T11:12:08.173Z,6.87
2019-05-22T11:14:37.928Z,6.60
2019-05-22T11:17:07.777Z,4.90
2019-05-22T11:19:38.475Z,8.50
2019-05-22T11:22:09.619Z,6.42
2019-05-22T11:24:39.304Z,6.17
2019-05-22T11:27:10.275Z,4.67
2019-05-22T11:29:40.729Z,5.53
2019-05-22T11:32:11.141Z,7.50
2019-05-22T11:34:41.042Z,6.37
2019-05-22T11:37:11.230Z,4.03
2019-05-22T11:39:44.935Z,4.47
2019-05-22T11:42:13.990Z,6.70
2019-05-22T11:44:44.501Z,6.90
2019-05-22T11:47:15.223Z,6.87
2019-05-22T11:49:45.909Z,6.17
2019-05-22T11:52:17.153Z,4.87
2019-05-22T11:54:46.828Z,5.70
2019-05-22T11:57:17.676Z,8.17
2019-05-22T11:59:47.934Z,5.33
2019-05-22T12:02:18.251Z,5.87
2019-05-22T12:04:49.002Z,8.80
2019-05-22T12:07:20.593Z,6.53
2019-05-22T12:09:50.976Z,5.53
2019-05-22T12:12:21.638Z,5.03
2019-05-22T12:14:52.116Z,5.20
2019-05-22T12:17:37.419Z,9.20
2019-05-22T12:19:54.237Z,5.63
2019-05-22T12:22:25.156Z,7.65
2019-05-22T12:24:54.846Z,5.17
2019-05-22T12:27:24.665Z,5.33
2019-05-22T12:29:57.067Z,5.90
2019-05-22T12:32:30.333Z,7.67
2019-05-22T12:35:00.842Z,3.63
2019-05-22T12:37:33.632Z,5.67
2019-05-22T12:40:03.769Z,3.77
2019-05-22T12:42:33.843Z,5.07
2019-05-22T12:45:05.287Z,4.80
2019-05-22T12:47:35.695Z,4.20
2019-05-22T12:50:06.824Z,5.80
2019-05-22T12:52:38.869Z,5.85
2019-05-22T12:55:08.724Z,4.70
2019-05-22T12:57:38.597Z,4.43
2019-05-22T13:00:10.248Z,8.27
2019-05-22T13:02:42.887Z,5.20
2019-05-22T13:05:14.946Z,6.17
2019-05-22T13:07:45.343Z,9.50
2019-05-22T13:10:17.090Z,5.73
2019-05-22T13:12:48.040Z,5.60
2019-05-22T13:15:18.076Z,7.77
2019-05-22T13:17:49.587Z,6.77
2019-05-22T13:20:40.953Z,9.77
2019-05-22T13:22:58.017Z,8.90
2019-05-22T13:25:31.028Z,10.50
2019-05-22T13:28:01.260Z,7.80
2019-05-22T13:30:32.579Z,9.53
2019-05-22T13:33:04.306Z,9.70
2019-05-22T13:35:36.805Z,8.95
2019-05-22T13:38:07.377Z,7.60
2019-05-22T13:40:39.201Z,7.73
2019-05-22T13:43:10.730Z,11.20
2019-05-22T13:45:41.078Z,6.73
2019-05-22T13:48:11.936Z,10.33
2019-05-22T13:50:44.773Z,9.80
2019-05-22T13:53:17.943Z,7.80
2019-05-22T13:55:48.212Z,9.23
2019-05-22T13:58:21.775Z,8.07
2019-05-22T14:00:52.336Z,9.57
2019-05-22T14:03:24.998Z,10.28
2019-05-22T14:05:58.436Z,7.58
2019-05-22T14:08:29.032Z,9.35
2019-05-22T14:10:59.233Z,7.45
2019-05-22T14:13:29.824Z,6.73
2019-05-22T14:16:00.919Z,8.43
2019-05-22T14:18:31.466Z,5.37
2019-05-22T14:21:02.482Z,7.97
2019-05-22T14:23:33.083Z,4.17
2019-05-22T14:26:03.483Z,5.45
2019-05-22T14:28:35.123Z,5.70
2019-05-22T14:31:04.935Z,5.67
2019-05-22T14:33:40.231Z,8.78
2019-05-22T14:36:07.090Z,6.00
2019-05-22T14:38:36.936Z,4.62
2019-05-22T14:41:07.266Z,4.67
2019-05-22T14:43:36.928Z,7.70
2019-05-22T14:46:07.365Z,7.70
2019-05-22T14:48:37.648Z,7.37
2019-05-22T14:51:07.773Z,7.87
2019-05-22T14:53:38.200Z,6.17
2019-05-22T14:56:10.997Z,9.68
2019-05-22T14:58:42.447Z,8.63
2019-05-22T15:01:12.419Z,10.05
2019-05-22T15:03:43.669Z,6.00
2019-05-22T15:06:14.964Z,6.20
2019-05-22T15:08:45.934Z,8.65
2019-05-22T15:11:16.164Z,7.92
2019-05-22T15:13:46.392Z,4.87
2019-05-22T15:16:16.098Z,8.73
2019-05-22T15:18:46.777Z,5.60
2019-05-22T15:21:18.331Z,6.58
2019-05-22T15:23:48.867Z,5.80
2019-05-22T15:26:21.561Z,7.22
2019-05-22T15:28:52.223Z,11.75
2019-05-22T15:31:22.312Z,6.40
2019-05-22T15:33:51.969Z,7.92
2019-05-22T15:36:24.102Z,6.65
2019-05-22T15:38:55.062Z,7.17
2019-05-22T15:41:25.744Z,7.10
2019-05-22T15:43:56.312Z,5.33
2019-05-22T15:46:29.091Z,6.63
2019-05-22T15:48:59.429Z,7.30
2019-05-22T15:51:32.974Z,5.80
2019-05-22T15:54:05.342Z,5.83
2019-05-22T15:56:37.998Z,6.05
2019-05-22T15:59:12.795Z,5.37
2019-05-22T16:01:42.876Z,5.47
2019-05-22T16:04:14.595Z,5.05
2019-05-22T16:06:46.905Z,5.87
2019-05-22T16:09:19.121Z,8.08
2019-05-22T16:11:50.914Z,5.53
2019-05-22T16:14:21.510Z,5.47
2019-05-22T16:16:52.920Z,6.15
2019-05-22T16:19:24.597Z,5.62
2019-05-22T16:21:55.679Z,6.65
2019-05-22T16:24:27.466Z,8.60
2019-05-22T16:26:57.267Z,5.80
2019-05-22T16:29:27.308Z,8.23
2019-05-22T16:32:00.539Z,7.80
2019-05-22T16:34:31.400Z,7.92
2019-05-22T16:37:03.956Z,8.25
2019-05-22T16:39:36.655Z,5.00
2019-05-22T16:42:08.045Z,8.05
2019-05-22T16:44:38.769Z,7.00
2019-05-22T16:47:10.954Z,5.47
2019-05-22T16:49:42.209Z,5.37
2019-05-22T16:52:14.323Z,8.43
2019-05-22T16:54:47.416Z,8.05
2019-05-22T16:57:17.425Z,7.40
2019-05-22T16:59:47.328Z,8.63
2019-05-22T17:02:17.862Z,8.67
2019-05-22T17:04:47.649Z,10.80
2019-05-22T17:07:18.276Z,11.70
2019-05-22T17:09:49.555Z,8.77
2019-05-22T17:12:21.869Z,7.70
2019-05-22T17:14:54.822Z,7.67
2019-05-22T17:17:26.059Z,7.50
2019-05-22T17:19:56.648Z,6.03
2019-05-22T17:22:26.845Z,10.13
2019-05-22T17:24:56.875Z,9.93
2019-05-22T17:27:28.089Z,7.70
2019-05-22T17:29:58.480Z,8.43
2019-05-22T17:32:29.297Z,7.57
2019-05-22T17:35:00.452Z,7.57
2019-05-22T17:37:31.030Z,7.28
2019-05-22T17:40:02.144Z,8.10
2019-05-22T17:42:33.991Z,10.10
2019-05-22T17:45:04.333Z,7.73
2019-05-22T17:47:35.183Z,7.55
2019-05-22T17:50:04.984Z,6.77
2019-05-22T17:52:36.261Z,8.90
2019-05-22T17:55:07.109Z,7.47
2019-05-22T17:57:38.199Z,8.20
2019-05-22T18:00:12.818Z,10.87
2019-05-22T18:02:42.354Z,7.03
2019-05-22T18:05:13.282Z,9.13
2019-05-22T18:07:42.891Z,10.03
2019-05-22T18:10:13.329Z,9.20
2019-05-22T18:12:43.984Z,8.53
2019-05-22T18:15:14.533Z,6.83
2019-05-22T18:17:45.198Z,5.53
2019-05-22T18:20:17.419Z,8.30
2019-05-22T18:22:47.664Z,7.20
2019-05-22T18:25:18.083Z,6.87
2019-05-22T18:27:48.629Z,7.23
2019-05-22T18:30:19.392Z,5.33
2019-05-22T18:32:49.862Z,7.55
2019-05-22T18:35:21.093Z,3.98
2019-05-22T18:37:51.530Z,5.00
2019-05-22T18:40:21.416Z,4.87
2019-05-22T18:42:51.443Z,5.10
2019-05-22T18:45:22.276Z,4.37
2019-05-22T18:47:52.409Z,4.97
2019-05-22T18:50:22.924Z,6.33
2019-05-22T18:52:53.943Z,9.50
2019-05-22T18:55:23.870Z,7.90
2019-05-22T18:57:54.374Z,6.40
2019-05-22T19:00:26.956Z,7.87
2019-05-22T19:02:57.832Z,5.30
2019-05-22T19:05:31.873Z,6.72
2019-05-22T19:08:02.796Z,9.13
2019-05-22T19:10:33.619Z,9.37
2019-05-22T19:13:06.552Z,12.80
2019-05-22T19:15:36.502Z,12.70
2019-05-22T19:18:07.029Z,12.07
2019-05-22T19:20:37.451Z,13.60
2019-05-22T19:23:07.675Z,13.23
2019-05-22T19:25:37.378Z,12.33
2019-05-22T19:28:07.055Z,12.27
2019-05-22T19:30:38.131Z,15.00
2019-05-22T19:33:08.499Z,15.13
2019-05-22T19:35:38.249Z,12.73
2019-05-22T19:38:08.814Z,11.33
2019-05-22T19:40:38.650Z,13.90
2019-05-22T19:43:09.135Z,15.23
2019-05-22T19:45:38.733Z,12.97
2019-05-22T19:48:10.111Z,11.97
2019-05-22T19:50:40.543Z,12.80
2019-05-22T19:53:19.217Z,15.90
2019-05-22T19:55:46.676Z,14.40
2019-05-22T19:58:21.635Z,12.97
2019-05-22T20:00:48.964Z,13.63
2019-05-22T20:03:19.801Z,12.70
2019-05-22T20:05:50.181Z,12.73
2019-05-22T20:08:20.890Z,12.30
2019-05-22T20:10:52.469Z,13.60
2019-05-22T20:13:22.884Z,11.60
2019-05-22T20:15:53.374Z,10.77
2019-05-22T20:18:23.804Z,11.37
2019-05-22T20:20:54.621Z,7.70
2019-05-22T20:23:35.218Z,11.00
2019-05-22T20:25:56.008Z,13.40
2019-05-22T20:28:27.275Z,13.73
2019-05-22T20:30:57.914Z,12.47
2019-05-22T20:33:28.911Z,15.20
2019-05-22T20:35:59.630Z,12.20
2019-05-22T20:38:30.638Z,9.57
2019-05-22T20:41:01.106Z,8.27
2019-05-22T20:43:31.784Z,9.30
2019-05-22T20:46:02.106Z,8.20
2019-05-22T20:48:33.071Z,6.83
2019-05-22T20:51:04.424Z,7.30
2019-05-22T20:53:52.969Z,8.47
2019-05-22T20:56:10.503Z,6.47
2019-05-22T20:58:40.778Z,7.40
2019-05-22T21:01:12.549Z,6.83
2019-05-22T21:03:44.198Z,8.27
2019-05-22T21:06:16.704Z,6.90
2019-05-22T21:08:49.020Z,6.50
2019-05-22T21:11:21.261Z,6.37
2019-05-22T21:13:51.333Z,10.87
2019-05-22T21:16:22.773Z,9.77
2019-05-22T21:18:55.541Z,8.27
2019-05-22T21:21:25.928Z,7.97
2019-05-22T21:24:09.304Z,10.17
2019-05-22T21:26:27.912Z,8.43
2019-05-22T21:28:59.806Z,10.63
2019-05-22T21:31:30.926Z,8.33
2019-05-22T21:34:03.288Z,6.23
2019-05-22T21:36:33.769Z,6.95
2019-05-22T21:39:05.661Z,6.43
2019-05-22T21:41:35.357Z,5.50
2019-05-22T21:44:06.289Z,9.43
2019-05-22T21:46:36.963Z,7.22
2019-05-22T21:49:08.997Z,7.37
2019-05-22T21:51:39.192Z,6.87
2019-05-22T21:54:10.169Z,12.50
2019-05-22T21:56:41.104Z,9.33
2019-05-22T21:59:11.369Z,11.93
2019-05-22T22:01:49.430Z,11.43
2019-05-22T22:04:23.372Z,11.57
2019-05-22T22:06:55.379Z,14.73
2019-05-22T22:09:26.319Z,13.47
2019-05-22T22:11:57.797Z,17.53
2019-05-22T22:14:28.999Z,14.45
2019-05-22T22:17:00.179Z,16.37
2019-05-22T22:19:31.752Z,17.75
2019-05-22T22:22:03.754Z,17.50
2019-05-22T22:24:34.970Z,17.93
2019-05-22T22:27:05.411Z,13.37
2019-05-22T22:29:35.457Z,16.57
2019-05-22T22:32:10.538Z,21.20
2019-05-22T22:34:47.517Z,18.13
2019-05-22T22:37:19.201Z,21.40
2019-05-22T22:39:55.398Z,22.07
2019-05-22T22:42:26.466Z,19.83
2019-05-22T22:44:57.601Z,21.00
2019-05-22T22:47:46.291Z,22.02
2019-05-22T22:50:18.435Z,20.50
2019-05-22T22:52:48.678Z,20.77
2019-05-22T22:55:20.975Z,21.57
2019-05-22T22:57:52.304Z,22.43
2019-05-22T23:00:29.779Z,20.07
2019-05-22T23:03:02.281Z,18.57
2019-05-22T23:05:34.997Z,18.03
2019-05-22T23:08:06.140Z,21.13
2019-05-22T23:10:37.375Z,17.27
2019-05-22T23:13:08.354Z,21.93
2019-05-22T23:15:40.154Z,19.13
2019-05-22T23:18:11.733Z,20.03
2019-05-22T23:20:41.190Z,22.10
2019-05-22T23:23:09.829Z,26.10
2019-05-22T23:25:42.346Z,24.27
2019-05-22T23:28:13.553Z,23.73
2019-05-22T23:30:43.913Z,26.23
2019-05-22T23:33:14.282Z,27.83
2019-05-22T23:35:44.846Z,27.20
2019-05-22T23:38:15.498Z,25.40
2019-05-22T23:40:48.449Z,31.20
2019-05-22T23:43:20.307Z,27.70
2019-05-22T23:45:51.193Z,24.07
2019-05-22T23:48:23.376Z,25.55
2019-05-22T23:50:53.774Z,27.70
2019-05-22T23:53:25.024Z,28.47
2019-05-22T23:55:56.279Z,29.93
2019-05-22T23:58:27.868Z,28.73
